Time;durP1;ratioP1;P1;durP2;ratioP2;P2;SDS_P1;SDS_P2;PMS_P1;PMS_P2;Temp;Humidity;BMP_temperature;BMP_pressure;BME280_temperature;BME280_humidity;BME280_pressure;Samples;Min_cycle;Max_cycle;Signal;HPM_P1;HPM_P2
2023/01/05 00:01:02;;;;;;;4.38;2.17;;;;;;;9.71;100.00;100460.66;6093377;23;20022;-82
2023/01/05 00:03:29;;;;;;;3.80;2.28;;;;;;;9.70;100.00;100446.56;6094313;23;20433;-81
2023/01/05 00:06:00;;;;;;;2.45;2.22;;;;;;;9.68;100.00;100439.63;6096307;23;20484;-81
2023/01/05 00:08:27;;;;;;;2.83;2.20;;;;;;;9.67;100.00;100451.13;6093811;23;20026;-83
2023/01/05 00:22:29;;;;;;;2.35;2.15;;;;;;;10.02;100.00;100536.91;6122926;23;20045;-81
2023/01/05 00:25:14;;;;;;;2.28;2.10;;;;;;;9.35;100.00;100436.59;6144013;23;20010;-81
2023/01/05 00:27:42;;;;;;;2.47;2.00;;;;;;;9.35;100.00;100426.03;6125083;23;20014;-79
2023/01/05 00:30:11;;;;;;;3.55;2.17;;;;;;;9.97;100.00;100528.31;6120282;23;20018;-80
2023/01/05 00:32:40;;;;;;;1.70;1.60;;;;;;;9.84;100.00;100499.72;6121959;23;20022;-80
2023/01/05 00:35:08;;;;;;;2.55;1.67;;;;;;;9.09;100.00;100376.91;6121925;23;20029;-80
2023/01/05 00:37:37;;;;;;;1.83;1.73;;;;;;;9.33;100.00;100407.59;6121039;23;20128;-79
2023/01/05 00:40:09;;;;;;;1.75;1.65;;;;;;;9.90;100.00;100505.69;6121285;23;20022;-80
2023/01/05 00:42:36;;;;;;;1.70;1.60;;;;;;;9.93;100.00;100514.34;6122676;23;20050;-80
2023/01/05 00:45:09;;;;;;;2.67;1.80;;;;;;;9.38;100.00;100429.41;6121601;23;20033;-80
2023/01/05 00:47:35;;;;;;;1.90;1.70;;;;;;;9.05;100.00;100354.19;6122431;23;20516;-80
2023/01/05 00:50:06;;;;;;;1.90;1.80;;;;;;;9.35;100.00;100405.75;6095999;23;20057;-80
2023/01/05 00:52:33;;;;;;;1.70;1.60;;;;;;;9.90;100.00;100497.75;6121032;23;20056;-79
2023/01/05 00:55:02;;;;;;;3.42;1.80;;;;;;;8.55;100.00;100279.69;6120694;23;20101;-80
2023/01/05 00:57:32;;;;;;;2.15;1.80;;;;;;;9.35;100.00;100389.91;6121884;23;20022;-79
2023/01/05 01:00:00;;;;;;;1.70;1.52;;;;;;;9.17;100.00;100356.31;6120920;23;20101;-79
2023/01/05 01:02:30;;;;;;;1.52;1.30;;;;;;;9.93;100.00;100493.19;6120033;23;20021;-81
2023/01/05 01:04:57;;;;;;;1.40;1.30;;;;;;;8.63;100.00;100281.09;6122182;23;20516;-80
2023/01/05 01:07:24;;;;;;;2.38;1.40;;;;;;;8.63;100.00;100269.69;6122317;23;20434;-81
2023/01/05 01:09:50;;;;;;;1.52;1.40;;;;;;;9.22;100.00;100383.41;6121045;23;20018;-82
2023/01/05 01:12:17;;;;;;;1.65;1.50;;;;;;;9.13;100.00;100373.19;6120984;23;20030;-80
2023/01/05 01:14:48;;;;;;;1.50;1.40;;;;;;;9.55;100.00;100435.78;6122151;23;20400;-80
2023/01/05 01:17:16;;;;;;;1.50;1.40;;;;;;;9.89;100.00;100499.53;6122378;23;20024;-80
2023/01/05 01:19:42;;;;;;;1.42;1.33;;;;;;;9.99;100.00;100521.16;6121301;23;20026;-81
2023/01/05 01:22:09;;;;;;;1.58;1.48;;;;;;;9.70;100.00;100469.50;6121808;23;20526;-80
2023/01/05 01:24:35;;;;;;;1.50;1.40;;;;;;;9.82;100.00;100498.06;6121783;23;20028;-81
2023/01/05 01:27:02;;;;;;;2.78;1.35;;;;;;;9.67;100.00;100461.69;6122054;23;20049;-81
2023/01/05 01:29:29;;;;;;;1.52;1.40;;;;;;;9.98;100.00;100516.81;6120783;23;20022;-80
2023/01/05 01:31:56;;;;;;;1.52;1.42;;;;;;;10.03;100.00;100542.16;6119817;23;20512;-81
2023/01/05 01:34:23;;;;;;;1.67;1.52;;;;;;;9.38;100.00;100424.13;6119788;23;20084;-80
2023/01/05 01:36:49;;;;;;;1.88;1.67;;;;;;;10.09;100.00;100533.06;6095639;23;20025;-80
2023/01/05 01:39:16;;;;;;;1.75;1.65;;;;;;;9.54;100.00;100465.78;6121092;23;20017;-81
2023/01/05 01:41:43;;;;;;;2.10;1.88;;;;;;;8.96;100.00;100341.38;6121885;23;20412;-80
2023/01/05 01:44:47;;;;;;;2.20;2.00;;;;;;;10.13;100.00;100543.47;6121745;23;20102;-81
2023/01/05 01:47:59;;;;;;;2.80;1.92;;;;;;;10.15;100.00;100540.75;6121878;23;20119;-81
2023/01/05 01:50:47;;;;;;;2.20;2.00;;;;;;;9.92;100.00;100494.09;6121622;23;20029;-81
2023/01/05 01:53:19;;;;;;;2.17;2.00;;;;;;;10.08;100.00;100526.06;6120427;23;20022;-83
2023/01/05 01:55:46;;;;;;;2.13;1.92;;;;;;;9.92;100.00;100496.75;6123438;23;20025;-79
2023/01/05 01:58:16;;;;;;;2.28;2.10;;;;;;;9.85;100.00;100480.28;6125477;23;20036;-79
2023/01/05 02:00:45;;;;;;;2.28;2.08;;;;;;;10.09;100.00;100523.34;6124235;23;20041;-81
2023/01/05 02:03:13;;;;;;;2.35;1.80;;;;;;;9.94;100.00;100494.03;6120709;23;20108;-82
2023/01/05 02:05:40;;;;;;;2.08;1.88;;;;;;;10.21;100.00;100532.59;6122543;23;20018;-81
2023/01/05 02:08:12;;;;;;;2.10;1.88;;;;;;;10.00;100.00;100486.72;6122340;23;20014;-81
2023/01/05 02:10:55;;;;;;;3.30;1.80;;;;;;;9.97;100.00;100484.19;6122986;23;20021;-81
2023/01/05 02:13:35;;;;;;;2.67;2.00;;;;;;;10.27;100.00;100534.97;6066751;23;20097;-81
2023/01/05 02:16:44;;;;;;;2.13;2.00;;;;;;;9.91;100.00;100475.69;6069055;23;20033;-82
2023/01/05 02:19:41;;;;;;;1.67;1.52;;;;;;;10.04;100.00;100501.53;6081945;23;20023;-80
2023/01/05 02:22:40;;;;;;;1.63;1.52;;;;;;;10.14;100.00;100509.94;6079032;23;20444;-81
2023/01/05 02:25:26;;;;;;;1.95;1.55;;;;;;;10.30;100.00;100534.84;6068436;23;20027;-81
2023/01/05 02:27:52;;;;;;;3.33;1.58;;;;;;;10.27;100.00;100518.22;6077824;23;20082;-80
2023/01/05 02:30:41;;;;;;;2.58;1.98;;;;;;;10.31;100.00;100518.03;6074155;23;20030;-79
2023/01/05 02:33:29;;;;;;;3.17;1.58;;;;;;;10.31;100.00;100507.44;6073170;23;20389;-80
2023/01/05 02:36:28;;;;;;;1.20;1.10;;;;;;;10.23;100.00;100503.44;6077266;23;20066;-81
2023/01/05 02:39:10;;;;;;;2.03;1.27;;;;;;;10.15;100.00;100491.34;6071688;23;20017;-80
2023/01/05 02:41:56;;;;;;;2.20;1.40;;;;;;;10.32;100.00;100537.41;6078149;23;20037;-81
2023/01/05 02:44:27;;;;;;;2.15;1.30;;;;;;;10.18;100.00;100520.34;6076424;23;20296;-81
2023/01/05 02:46:59;;;;;;;4.38;1.63;;;;;;;10.11;100.00;100516.22;6073210;23;20054;-80
2023/01/05 02:49:32;;;;;;;3.03;1.30;;;;;;;9.98;100.00;100491.22;6085704;23;20022;-81
2023/01/05 02:52:02;;;;;;;3.42;1.08;;;;;;;10.26;100.00;100532.38;6063093;23;20094;-81
2023/01/05 02:54:58;;;;;;;3.30;0.75;;;;;;;10.19;100.00;100542.38;6062997;23;20023;-81
2023/01/05 02:57:47;;;;;;;2.10;0.88;;;;;;;10.08;100.00;100548.09;6064260;23;20468;-81
2023/01/05 03:00:18;;;;;;;6.03;1.20;;;;;;;10.13;100.00;100551.41;6065530;23;20023;-81
2023/01/05 03:02:49;;;;;;;5.78;1.15;;;;;;;9.31;100.00;100417.38;6065248;23;20023;-82
2023/01/05 03:05:24;;;;;;;5.63;1.27;;;;;;;9.80;100.00;100510.50;6065995;23;20019;-81
2023/01/05 03:07:53;;;;;;;6.88;1.25;;;;;;;9.94;100.00;100529.28;6065335;23;20023;-82
2023/01/05 03:16:01;;;;;;;7.97;1.25;;;;;;;9.72;100.00;100542.56;6123630;23;20028;-82
2023/01/05 03:18:30;;;;;;;8.93;1.83;;;;;;;9.24;100.00;100450.25;6123864;23;20014;-82
2023/01/05 03:21:00;;;;;;;8.68;1.23;;;;;;;9.84;100.00;100575.56;6123215;23;20024;-81
2023/01/05 03:35:33;;;;;;;9.75;1.67;;;;;;;9.65;100.00;100569.31;6123135;23;20018;-81
2023/01/05 03:38:23;;;;;;;11.93;1.58;;;;;;;9.73;100.00;100588.38;6118237;23;20020;-82
2023/01/05 03:40:52;;;;;;;12.33;1.70;;;;;;;9.75;100.00;100599.75;6126835;23;20024;-81
2023/01/05 03:43:20;;;;;;;9.40;1.98;;;;;;;9.74;100.00;100600.69;6124800;23;20544;-82
2023/01/05 03:45:53;;;;;;;12.60;1.70;;;;;;;9.50;100.00;100558.44;6126265;23;20018;-82
2023/01/05 03:48:21;;;;;;;13.25;1.70;;;;;;;9.79;100.00;100583.69;6124800;23;20022;-82
2023/01/05 03:50:49;;;;;;;10.18;1.85;;;;;;;9.92;100.00;100597.25;6124365;23;20024;-80
2023/01/05 03:53:15;;;;;;;10.35;2.22;;;;;;;9.33;100.00;100504.50;6122830;23;20105;-82
2023/01/05 03:55:42;;;;;;;12.45;1.70;;;;;;;9.79;100.00;100577.53;6119903;23;20026;-82
2023/01/05 03:58:33;;;;;;;;;;;;;;;9.88;100.00;100594.84;6120703;23;20045;-83
2023/01/05 04:01:23;;;;;;;11.30;2.10;;;;;;;9.80;100.00;100590.69;6121091;23;19936;-82
2023/01/05 04:04:13;;;;;;;13.25;1.92;;;;;;;9.63;100.00;100560.56;6122412;23;20412;-82
2023/01/05 04:07:06;;;;;;;17.48;1.95;;;;;;;9.68;100.00;100574.47;6120274;23;20024;-82
2023/01/05 04:09:56;;;;;;;16.45;2.08;;;;;;;9.41;100.00;100534.16;6118844;23;20028;-83
2023/01/05 22:59:27;;;;;;;14.95;4.32;;;;;;;10.07;100.00;100984.75;6086110;23;20081;-81
2023/01/05 23:01:54;;;;;;;12.70;4.43;;;;;;;10.04;100.00;100972.50;6091857;23;20114;-80
2023/01/05 23:04:20;;;;;;;15.85;4.78;;;;;;;9.69;100.00;100909.38;6092897;23;20038;-85
2023/01/05 23:06:47;;;;;;;11.23;4.32;;;;;;;9.85;100.00;100942.31;6093930;23;20023;-80
2023/01/05 23:09:15;;;;;;;15.00;4.45;;;;;;;9.76;100.00;100939.97;6092302;23;20023;-81
2023/01/05 23:11:43;;;;;;;15.55;4.95;;;;;;;9.98;100.00;100971.84;6092090;23;20110;-83
2023/01/05 23:14:12;;;;;;;15.10;4.68;;;;;;;9.78;100.00;100944.28;6094425;23;20026;-82
2023/01/05 23:16:39;;;;;;;16.88;4.60;;;;;;;9.42;100.00;100890.06;6095151;23;20046;-83
2023/01/05 23:19:07;;;;;;;13.85;4.55;;;;;;;9.64;100.00;100913.97;6095264;23;20074;-82
2023/01/05 23:21:35;;;;;;;17.42;4.93;;;;;;;9.70;100.00;100924.34;6094464;23;20022;-83
2023/01/05 23:24:02;;;;;;;16.05;4.28;;;;;;;9.97;100.00;100954.22;6094230;23;20024;-82
2023/01/05 23:26:29;;;;;;;20.08;5.00;;;;;;;9.64;100.00;100901.59;6093252;23;20019;-82
2023/01/05 23:28:55;;;;;;;17.15;4.53;;;;;;;9.59;100.00;100902.72;6089071;23;20050;-83
2023/01/05 23:31:22;;;;;;;15.40;4.90;;;;;;;9.65;100.00;100913.91;6091246;23;20096;-82
2023/01/05 23:33:49;;;;;;;13.80;5.20;;;;;;;9.06;100.00;100811.13;6092412;23;20335;-83
2023/01/05 23:36:17;;;;;;;16.35;4.95;;;;;;;9.41;100.00;100886.56;6094051;23;20021;-83
2023/01/05 23:38:45;;;;;;;13.02;4.50;;;;;;;9.84;100.00;100945.88;6093773;23;20046;-82
2023/01/05 23:41:14;;;;;;;15.25;5.10;;;;;;;9.61;100.00;100900.84;6094546;23;20025;-81
2023/01/05 23:43:43;;;;;;;16.80;4.78;;;;;;;8.95;100.00;100781.59;6094662;23;20022;-83
2023/01/05 23:46:18;;;;;;;15.87;4.77;;;;;;;9.08;100.00;100801.38;6094039;23;20070;-82
2023/01/05 23:48:46;;;;;;;14.98;5.50;;;;;;;9.67;100.00;100901.50;6093239;23;20050;-83
2023/01/05 23:51:15;;;;;;;19.65;4.85;;;;;;;9.66;100.00;100905.06;6093100;23;20022;-83
2023/01/05 23:53:43;;;;;;;10.32;4.45;;;;;;;9.53;100.00;100879.13;6100266;23;20101;-83
2023/01/05 23:56:15;;;;;;;13.93;4.55;;;;;;;9.83;100.00;100923.84;6106286;23;20022;-82
2023/01/05 23:58:42;;;;;;;16.40;4.72;;;;;;;9.73;100.00;100901.31;6111297;23;20030;-82
